Rochelle, IL

8:06 PM CST on November 16, 2019 (GMT -0600)
Rochelle

Weather History for KRPJ - September, 2019

Change the Weather History Date:

Thursday, September 5, 2019

  Actual Average (KRFD) Record (KRFD)
Temperature  
Mean Temperature 60 °F -  
Max Temperature 71 °F 78 °F 100 °F (1925)
Min Temperature 48 °F 55 °F 41 °F (1924)
Degree Days  
Heating Degree Days 6    
Growing Degree Days 10 (Base 50)    
Moisture  
Dew Point 56 °F    
Average Humidity 86    
Maximum Humidity 100    
Minimum Humidity 65    
Precipitation  
Precipitation 0.00 in - - ()
Sea Level Pressure  
Sea Level Pressure 30.13 in    
Wind  
Wind Speed 2 mph ()    
Max Wind Speed 8 mph    
Max Gust Speed -    
Visibility 9.6 miles    
Events      
Averages and records for this station are not official NWS values.
T = Trace of Precipitation, MM = Missing Value Source: Averaged Metar Reports

Daily Weather History Graph

Daily Weather History Graph

Search for Another Location

Airport or City:

Astronomy

Sep. 05, 2019 Rise Set
Actual Time 6:25 AM CDT 7:23 PM CDT
Civil Twilight 5:57 AM CDT 7:51 PM CDT
Nautical Twilight 5:23 AM CDT 8:25 PM CDT
Astronomical Twilight 4:48 AM CDT 9:00 PM CDT
Moon 1:39 PM CDT (9/5) 11:32 PM CDT (9/5)
Length of Visible Light 13h 54m
Length of Day
12h 57m
Waxing Crescent, 45% of the Moon is Illuminated
Sep 5
Waxing Crescent
Sep 5
First Quarter
Sep 13
Full
Sep 21
Last Quarter
Sep 28
New

Hourly Weather History & Observations

Time (CDT) Temp. Dew Point Humidity Pressure Visibility Wind Dir Wind Speed Gust Speed Precip Events Conditions
12:15 AM 55.2 °F 53.8 °F 95% 30.18 in 10.0 mi Calm Calm - N/A   Clear
12:35 AM 53.6 °F 53.4 °F 99% 30.18 in 10.0 mi East 3.5 mph - N/A   Clear
12:55 AM 53.4 °F 53.1 °F 99% 30.18 in 10.0 mi East 3.5 mph - N/A   Clear
1:20 AM 52.9 °F 52.7 °F 99% 30.17 in 10.0 mi East 4.6 mph - N/A   Clear
1:35 AM 52.9 °F 52.9 °F 100% 30.17 in 10.0 mi East 6.9 mph - N/A   Clear
1:55 AM 52.7 °F 52.3 °F 99% 30.17 in 10.0 mi ESE 6.9 mph - N/A   Clear
2:15 AM 52.2 °F 51.8 °F 99% 30.18 in 10.0 mi Calm Calm - N/A   Clear
2:35 AM 51.4 °F 51.4 °F 100% 30.17 in 10.0 mi East 3.5 mph - N/A   Clear
2:55 AM 51.4 °F 51.4 °F 100% 30.17 in 10.0 mi East 3.5 mph - N/A   Clear
3:15 AM 50.9 °F 50.9 °F 100% 30.17 in 10.0 mi Calm Calm - N/A   Clear
3:35 AM 50.9 °F 50.9 °F 100% 30.17 in 10.0 mi Calm Calm - N/A   Clear
3:55 AM 50.2 °F 50.2 °F 100% 30.17 in 10.0 mi Calm Calm - N/A   Clear
4:15 AM 49.6 °F 49.6 °F 100% 30.18 in 10.0 mi Calm Calm - N/A   Clear
4:35 AM 49.6 °F 49.6 °F 100% 30.18 in 10.0 mi Calm Calm - N/A   Clear
4:55 AM 50.2 °F 50.2 °F 100% 30.18 in 10.0 mi Calm Calm - N/A   Clear
5:15 AM 50.0 °F 50.0 °F 100% 30.18 in 10.0 mi Calm Calm - N/A   Clear
5:35 AM 50.0 °F 50.0 °F 100% 30.18 in 10.0 mi Calm Calm - N/A   Clear
5:55 AM 49.1 °F 49.1 °F 100% 30.19 in 10.0 mi NE 3.5 mph - N/A   Clear
6:15 AM 49.1 °F 49.1 °F 100% 30.19 in 7.0 mi Calm Calm - N/A   Clear
6:35 AM 48.2 °F 48.2 °F 100% 30.20 in 3.0 mi Calm Calm - N/A   Clear
6:55 AM 48.0 °F 48.0 °F 100% 30.20 in 4.0 mi Calm Calm - N/A   Clear
7:15 AM 49.3 °F 49.3 °F 100% 30.20 in 5.0 mi Calm Calm - N/A   Clear
7:35 AM 51.3 °F 51.3 °F 100% 30.21 in 5.0 mi Calm Calm - N/A   Clear
7:55 AM 52.7 °F 52.7 °F 100% 30.21 in 10.0 mi Calm Calm - N/A   Clear
8:15 AM 54.9 °F 54.5 °F 99% 30.21 in 10.0 mi Calm Calm - N/A   Clear
8:35 AM 57.6 °F 55.9 °F 94% 30.21 in 10.0 mi Calm Calm - N/A   Clear
8:55 AM 59.5 °F 56.8 °F 91% 30.21 in 10.0 mi Calm Calm - N/A   Clear
9:15 AM 61.0 °F 57.2 °F 87% 30.21 in 10.0 mi Calm Calm - N/A   Clear
9:35 AM 62.6 °F 57.6 °F 84% 30.21 in 10.0 mi Calm Calm - N/A   Clear
9:55 AM 63.3 °F 56.8 °F 79% 30.21 in 10.0 mi South 4.6 mph - N/A   Scattered Clouds
10:15 AM 63.5 °F 56.1 °F 77% 30.20 in 10.0 mi SE 3.5 mph - N/A   Scattered Clouds
10:35 AM 63.7 °F 55.6 °F 75% 30.20 in 10.0 mi SW 3.5 mph - N/A   Scattered Clouds
10:55 AM 64.9 °F 55.2 °F 71% 30.19 in 10.0 mi Calm Calm - N/A   Mostly Cloudy
11:15 AM 64.4 °F 55.0 °F 72% 30.18 in 10.0 mi SW 3.5 mph - N/A   Overcast
11:35 AM 65.3 °F 55.0 °F 69% 30.19 in 10.0 mi Calm Calm - N/A   Mostly Cloudy
11:55 AM 66.9 °F 56.5 °F 69% 30.18 in 10.0 mi SSW 4.6 mph - N/A   Scattered Clouds
12:15 PM 66.2 °F 56.8 °F 72% 30.18 in 10.0 mi West 4.6 mph - N/A   Mostly Cloudy
12:35 PM 68.2 °F 57.4 °F 68% 30.17 in 10.0 mi South 4.6 mph - N/A   Mostly Cloudy
12:55 PM 67.6 °F 57.2 °F 69% 30.17 in 10.0 mi SSW 3.5 mph - N/A   Mostly Cloudy
1:15 PM 67.1 °F 56.5 °F 69% 30.17 in 10.0 mi Calm Calm - N/A   Mostly Cloudy
1:35 PM 68.2 °F 56.7 °F 67% 30.16 in 10.0 mi Calm Calm - N/A   Mostly Cloudy
1:55 PM 68.9 °F 57.6 °F 67% 30.15 in 10.0 mi South 3.5 mph - N/A   Mostly Cloudy
2:15 PM 69.3 °F 56.8 °F 65% 30.14 in 10.0 mi Calm Calm - N/A   Scattered Clouds
2:35 PM 69.8 °F 57.6 °F 65% 30.13 in 10.0 mi Calm Calm - N/A   Scattered Clouds
2:55 PM 70.0 °F 57.9 °F 65% 30.12 in 10.0 mi SSW 3.5 mph - N/A   Clear
3:15 PM 70.5 °F 58.5 °F 66% 30.12 in 10.0 mi SE 4.6 mph - N/A   Clear
3:35 PM 70.9 °F 59.2 °F 66% 30.10 in 10.0 mi Calm Calm - N/A   Clear
3:55 PM 70.9 °F 58.8 °F 66% 30.09 in 10.0 mi South 5.8 mph - N/A   Clear
4:15 PM 71.4 °F 59.5 °F 66% 30.08 in 10.0 mi SSE 3.5 mph - N/A   Clear
4:35 PM 71.1 °F 58.8 °F 65% 30.08 in 10.0 mi SSE 4.6 mph - N/A   Clear
4:55 PM 71.4 °F 59.4 °F 66% 30.07 in 10.0 mi South 3.5 mph - N/A   Clear
5:15 PM 70.9 °F 59.0 °F 66% 30.07 in 10.0 mi SSE 3.5 mph - N/A   Clear
5:38 PM 71.6 °F 60.8 °F 69% 30.06 in 10.0 mi South 5.8 mph - N/A   Clear
5:55 PM 70.0 °F 59.4 °F 69% 30.06 in 10.0 mi South 8.1 mph - N/A   Clear
6:15 PM 69.3 °F 59.7 °F 72% 30.06 in 10.0 mi SSE 5.8 mph - N/A   Clear
6:35 PM 68.4 °F 60.1 °F 75% 30.06 in 10.0 mi SSE 4.6 mph - N/A   Clear
6:55 PM 66.6 °F 60.8 °F 82% 30.05 in 10.0 mi SSE 4.6 mph - N/A   Clear
7:15 PM 64.6 °F 61.0 °F 88% 30.05 in 10.0 mi SE 4.6 mph - N/A   Clear
7:35 PM 63.3 °F 60.8 °F 91% 30.04 in 10.0 mi SSE 5.8 mph - N/A   Clear
7:55 PM 62.2 °F 60.6 °F 94% 30.04 in 10.0 mi SSE 5.8 mph - N/A   Clear
8:15 PM 62.1 °F 60.4 °F 94% 30.03 in 10.0 mi SE 5.8 mph - N/A   Clear
8:35 PM 62.1 °F 60.3 °F 94% 30.03 in 10.0 mi SE 5.8 mph - N/A   Clear
8:55 PM 62.1 °F 59.9 °F 93% 30.03 in 10.0 mi SE 4.6 mph - N/A   Clear
9:15 PM 61.3 °F 59.5 °F 94% 30.03 in 10.0 mi SE 5.8 mph - N/A   Clear
9:35 PM 60.8 °F 59.5 °F 96% 30.02 in 10.0 mi SE 5.8 mph - N/A   Clear
9:55 PM 60.8 °F 59.4 °F 95% 30.02 in 10.0 mi SSE 4.6 mph - N/A   Clear
10:10 PM 60.8 °F 59.5 °F 96% 30.02 in 10.0 mi SSE 5.8 mph - N/A   Clear
10:35 PM 60.1 °F 59.5 °F 98% 30.03 in 10.0 mi South 4.6 mph - N/A   Clear
10:55 PM 59.2 °F 59.0 °F 99% 30.02 in 10.0 mi Calm Calm - N/A   Clear
11:15 PM 58.5 °F 58.5 °F 100% 30.02 in 10.0 mi Calm Calm - N/A   Scattered Clouds
11:35 PM 59.9 °F 59.9 °F 100% 30.02 in 10.0 mi Calm Calm - N/A   Overcast
11:55 PM 60.8 °F 60.4 °F 99% 30.01 in 10.0 mi SSE 4.6 mph - N/A   Overcast